Robins, IA (52328)

10:01 PM CDT on May 05, 2015 (GMT -0500)
The Howling Wolves | | Change Station
CLOSE
Current Station
Personal Weather Station
Location: Cedar Rapids, IA
Elevation: 860 ft
Nearby Weather Stations

Elev 860 ft 42.05 °N, 91.66 °W | Updated 7 seconds ago

Overcast
Overcast
58.8 °F
Feels Like 58.8 °F
N
0.0
Wind Variable Wind from SE
Gusts 0.0 mph

Today
High -- | Low -- °F
--% Chance of Precip.
Yesterday
High -- | Low -- °F
Precip. -- in
5:57 AM 8:09 PM
Waning Gibbous, 96% visible
Pressure 30.13 in
Visibility 2.5 miles
Clouds Overcast 300 ft
Dew Point 59 °F
Humidity 99%
Rainfall 0.30 in
Snow Depth Not available.
UV 0 out of 12
Pollen 3.30 out of 12
Air Quality Not available.
Flu Activity Local Activity
METAR KCID 060252Z 10010KT 2 1/2SM BR OVC003 14/14 A3013 RMK AO2 SLP202 T01440144 53010

More Conditions Fewer Conditions

Pressure 30.13 in
Visibility 2.5 miles
Clouds Overcast 300 ft
Dew Point 59 °F
Humidity 99%
Rainfall 0.30 in
Snow Depth Not available.
UV 0 out of 12
Pollen 3.30 out of 12
Air Quality Not available.
Flu Activity Local Activity
METAR KCID 060252Z 10010KT 2 1/2SM BR OVC003 14/14 A3013 RMK AO2 SLP202 T01440144 53010

More Conditions Fewer Conditions

10-Day Weather Forecast

Almanac

Astronomy

May. 05, 2015 Rise Set
Actual Time
Civil Twilight
Nautical Twilight
Astronomical Twilight
Moon
Length of Visible Light
Length of Day
Tomorrow will be .
, % of the Moon is Illuminated

Today's Extremes

State Highs State Lows

Community

WunderPhotos

Upload Photos

1,819,061 photos uploaded!

WunderBlogs® & News

Nearby

Air Quality

  Air Quality AQ Index Pollutant
Not available.

Snow Depth

Station Depth Elevation

Earthquake Activity

City Distance Mag. Time & Date
Minimum magnitude displayed is 2.5.

Coastal Water Temperatures

Place Temperature

Stations

Nearby Weather Stations

Station Location Temp. Windchill Dew Point Humidity Wind Precip. Elev Updated Type